Terminal Aerodrome Forecast
Issued by NWS

Home | Current Version | Previous Version | Text Only | Print | Product List | Glossary On
Versions: 1 2 3 4 5 6 7 8 9 10 11 12 13 14 15 16 17
000
FTUS42 KTBW 280527
TAFLAL
TAF
KLAL 280527Z 2806/2906 15012KT P6SM SCT025 BKN040
     FM281500 17015G20KT P6SM VCSH SCT020 BKN040
     FM281700 18016G21KT P6SM VCTS FEW025CB BKN040
     FM290200 18012G18KT P6SM VCSH SCT030 BKN100
      AMD NOT SKED TIL 281100=

USA.gov is the U.S. government's official web portal to all federal, state and local government web resources and services.